createdAt,value
2023-01-15T05:15:26.478Z,91.32
2023-01-15T05:16:26.423Z,91.42
2023-01-15T05:17:26.506Z,91.42
2023-01-15T05:18:26.384Z,91.42
2023-01-15T05:19:26.377Z,91.52
2023-01-15T05:20:26.364Z,91.73
2023-01-15T05:21:26.348Z,91.83
2023-01-15T05:22:26.342Z,91.63
2023-01-15T05:23:26.310Z,91.73
2023-01-15T05:24:26.332Z,91.83
2023-01-15T05:25:26.337Z,92.04
2023-01-15T05:26:26.281Z,92.25
2023-01-15T05:27:26.311Z,92.35
2023-01-15T05:28:26.247Z,92.46
2023-01-15T05:29:26.228Z,92.35
2023-01-15T05:30:26.219Z,92.35
2023-01-15T05:31:26.236Z,92.35
2023-01-15T05:32:26.216Z,92.55
2023-01-15T05:33:26.191Z,92.76
2023-01-15T05:34:26.165Z,92.86
2023-01-15T05:35:26.175Z,92.35
2023-01-15T05:36:26.145Z,92.35
2023-01-15T05:37:26.155Z,92.14
2023-01-15T05:38:26.115Z,92.25
2023-01-15T05:39:26.104Z,92.14
2023-01-15T05:40:26.116Z,91.89
2023-01-15T05:41:26.090Z,91.94
2023-01-15T05:42:26.072Z,91.83
2023-01-15T05:43:26.062Z,91.94
2023-01-15T05:44:26.056Z,91.94
2023-01-15T05:45:26.027Z,92.04
2023-01-15T05:46:26.081Z,91.83
2023-01-15T05:47:26.016Z,91.94
2023-01-15T05:48:25.994Z,91.94
2023-01-15T05:49:26.000Z,91.94
2023-01-15T05:50:28.356Z,92.14
2023-01-15T05:51:25.953Z,92.14
2023-01-15T05:52:25.958Z,92.25
2023-01-15T05:53:25.928Z,92.04
2023-01-15T05:54:25.911Z,91.83
2023-01-15T05:55:25.900Z,91.73
2023-01-15T05:56:25.892Z,91.52
2023-01-15T05:57:25.882Z,91.63
2023-01-15T05:58:25.864Z,91.63
2023-01-15T05:59:25.841Z,91.73
2023-01-15T06:00:25.849Z,91.83
2023-01-15T06:01:25.961Z,91.63
2023-01-15T06:02:25.844Z,91.48
2023-01-15T06:03:25.832Z,91.28
2023-01-15T06:04:25.790Z,91.48
2023-01-15T06:05:25.770Z,91.69
2023-01-15T06:06:25.765Z,91.52
2023-01-15T06:07:25.753Z,91.42
2023-01-15T06:08:25.750Z,91.63
2023-01-15T06:09:25.720Z,91.42
2023-01-15T06:10:25.709Z,91.52
2023-01-15T06:11:25.688Z,91.32
2023-01-15T06:12:25.681Z,91.11
2023-01-15T06:13:25.681Z,90.76
2023-01-15T06:14:25.666Z,90.55
2023-01-15T06:15:25.641Z,90.45
2023-01-15T06:16:25.630Z,90.55
2023-01-15T06:17:25.612Z,90.45
2023-01-15T06:18:25.620Z,90.55
2023-01-15T06:19:25.588Z,90.55
2023-01-15T06:20:25.584Z,90.45
2023-01-15T06:21:25.559Z,90.55
2023-01-15T06:22:25.549Z,90.14
2023-01-15T06:23:25.555Z,89.94
2023-01-15T06:24:25.529Z,89.94
2023-01-15T06:25:25.518Z,89.94
2023-01-15T06:26:25.498Z,90.14
2023-01-15T06:27:25.489Z,89.94
2023-01-15T06:28:25.487Z,89.73
2023-01-15T06:29:25.466Z,89.83
2023-01-15T06:30:25.447Z,89.94
2023-01-15T06:31:25.471Z,89.83
2023-01-15T06:32:25.428Z,90.04
2023-01-15T06:33:25.431Z,90.04
2023-01-15T06:34:25.411Z,90.14
2023-01-15T06:35:25.384Z,90.04
2023-01-15T06:36:25.369Z,90.25
2023-01-15T06:37:25.355Z,90.45
2023-01-15T06:38:25.378Z,90.14
2023-01-15T06:39:25.323Z,89.52
2023-01-15T06:40:25.328Z,89.38
2023-01-15T06:41:25.375Z,89.22
2023-01-15T06:42:25.300Z,89.17
2023-01-15T06:43:25.294Z,89.48
2023-01-15T06:44:26.621Z,89.52
2023-01-15T06:45:25.246Z,89.73
2023-01-15T06:46:25.254Z,89.83
2023-01-15T06:47:25.233Z,89.83
2023-01-15T06:48:25.234Z,89.73
2023-01-15T06:49:25.203Z,89.94
2023-01-15T06:50:25.194Z,89.83
2023-01-15T06:51:25.193Z,90.04
2023-01-15T06:52:25.199Z,90.14
2023-01-15T06:53:25.185Z,89.62
2023-01-15T06:54:25.147Z,89.52
2023-01-15T06:55:25.136Z,89.42
2023-01-15T06:56:25.117Z,89.73
2023-01-15T06:57:25.104Z,89.62
2023-01-15T06:58:25.085Z,89.73
2023-01-15T06:59:25.101Z,89.73
2023-01-15T07:00:25.186Z,89.32
2023-01-15T07:01:25.115Z,89.22
2023-01-15T07:02:25.063Z,89.32
2023-01-15T07:03:25.022Z,89.22
2023-01-15T07:04:25.023Z,89.11
2023-01-15T07:05:24.992Z,89.32
2023-01-15T07:06:26.479Z,89.22
2023-01-15T07:07:24.971Z,88.80
2023-01-15T07:08:24.962Z,88.59
2023-01-15T07:09:24.964Z,88.59
2023-01-15T07:10:24.940Z,88.49
2023-01-15T07:11:24.922Z,88.35
2023-01-15T07:12:24.913Z,88.45
2023-01-15T07:13:24.891Z,88.59
2023-01-15T07:14:24.902Z,88.59
2023-01-15T07:15:24.878Z,88.29
2023-01-15T07:16:24.884Z,87.98
2023-01-15T07:17:24.840Z,87.83
2023-01-15T07:18:24.836Z,88.04
2023-01-15T07:19:24.841Z,87.87
2023-01-15T07:20:24.814Z,87.87
2023-01-15T07:21:24.790Z,87.98
2023-01-15T07:22:24.788Z,87.66
2023-01-15T07:23:24.768Z,87.32
2023-01-15T07:24:24.782Z,86.94
2023-01-15T07:25:24.742Z,86.70
2023-01-15T07:26:24.740Z,86.70
2023-01-15T07:27:24.716Z,86.84
2023-01-15T07:28:24.768Z,86.84
2023-01-15T07:29:24.716Z,86.63
2023-01-15T07:30:24.713Z,86.63
2023-01-15T07:31:24.702Z,86.22
2023-01-15T07:32:24.650Z,86.12
2023-01-15T07:33:24.691Z,86.84
2023-01-15T07:34:24.650Z,86.53
2023-01-15T07:35:24.639Z,86.43
2023-01-15T07:36:24.608Z,86.43
2023-01-15T07:37:24.588Z,86.63
2023-01-15T07:38:24.590Z,86.84
2023-01-15T07:39:24.651Z,86.94
2023-01-15T07:40:24.604Z,87.15
2023-01-15T07:41:24.541Z,87.15
2023-01-15T07:42:24.640Z,87.26
2023-01-15T07:43:24.511Z,87.05
2023-01-15T07:44:24.506Z,87.77
2023-01-15T07:45:24.510Z,87.15
2023-01-15T07:46:24.473Z,86.22
2023-01-15T07:47:24.486Z,86.53
2023-01-15T07:48:24.453Z,86.53
2023-01-15T07:49:24.455Z,86.63
2023-01-15T07:50:24.433Z,86.32
2023-01-15T07:51:24.434Z,86.32
2023-01-15T07:52:24.433Z,86.12
2023-01-15T07:53:24.389Z,85.91
2023-01-15T07:54:24.423Z,86.02
2023-01-15T07:55:24.364Z,85.91
2023-01-15T07:56:24.417Z,85.81
2023-01-15T07:57:24.394Z,85.91
2023-01-15T07:58:24.341Z,85.81
2023-01-15T07:59:24.368Z,85.81
2023-01-15T08:00:24.310Z,85.91
2023-01-15T08:01:24.423Z,85.30
2023-01-15T08:02:24.283Z,85.60
2023-01-15T08:03:24.253Z,85.09
2023-01-15T08:04:24.253Z,85.30
2023-01-15T08:05:24.251Z,84.99
2023-01-15T08:06:24.243Z,84.67
2023-01-15T08:07:24.207Z,84.06
2023-01-15T08:08:24.198Z,83.54
2023-01-15T08:09:24.184Z,83.33
2023-01-15T08:10:24.199Z,83.75
2023-01-15T08:11:24.153Z,83.33
2023-01-15T08:12:24.141Z,83.64
2023-01-15T08:13:24.129Z,83.64
2023-01-15T08:14:24.120Z,83.95
2023-01-15T08:15:24.122Z,83.37
2023-01-15T08:16:24.113Z,83.78
2023-01-15T08:17:24.083Z,83.48
2023-01-15T08:18:24.079Z,83.58
2023-01-15T08:19:24.051Z,83.78
2023-01-15T08:20:24.112Z,83.48
2023-01-15T08:21:24.028Z,83.68
2023-01-15T08:22:24.017Z,83.89
2023-01-15T08:23:24.026Z,83.89
2023-01-15T08:24:23.980Z,83.99
2023-01-15T08:25:23.979Z,84.41
2023-01-15T08:26:23.986Z,84.51
2023-01-15T08:27:23.956Z,84.51
2023-01-15T08:28:23.940Z,84.61
2023-01-15T08:29:23.950Z,84.61
2023-01-15T08:30:23.941Z,84.51
2023-01-15T08:31:23.926Z,84.09
2023-01-15T08:32:23.935Z,84.06
2023-01-15T08:33:23.878Z,83.85
2023-01-15T08:34:23.854Z,83.95
2023-01-15T08:35:23.867Z,84.27
2023-01-15T08:36:23.836Z,83.95
2023-01-15T08:37:25.464Z,83.95
2023-01-15T08:38:23.809Z,84.27
2023-01-15T08:39:23.808Z,84.27
2023-01-15T08:40:23.797Z,84.06
2023-01-15T08:41:23.771Z,84.16
2023-01-15T08:42:23.746Z,84.27
2023-01-15T08:43:23.747Z,83.85
2023-01-15T08:44:23.729Z,84.16
2023-01-15T08:45:23.733Z,84.36
2023-01-15T08:46:23.694Z,84.06
2023-01-15T08:47:23.687Z,84.06
2023-01-15T08:48:23.675Z,84.27
2023-01-15T08:49:23.669Z,84.27
2023-01-15T08:50:23.686Z,84.36
2023-01-15T08:51:23.644Z,84.47
2023-01-15T08:52:23.635Z,84.57
2023-01-15T08:53:23.614Z,84.36
2023-01-15T08:54:23.594Z,84.27
2023-01-15T08:55:23.608Z,84.36
2023-01-15T08:56:23.574Z,84.57
2023-01-15T08:57:23.579Z,84.47
2023-01-15T08:58:23.556Z,84.36
2023-01-15T08:59:23.544Z,83.23
2023-01-15T09:00:23.547Z,83.44
2023-01-15T09:01:23.640Z,83.64
2023-01-15T09:02:23.502Z,83.75
2023-01-15T09:03:23.481Z,83.33
2023-01-15T09:04:23.515Z,82.92
2023-01-15T09:05:23.484Z,82.92
2023-01-15T09:06:23.449Z,82.92
2023-01-15T09:07:23.511Z,83.03
2023-01-15T09:08:23.414Z,83.03
2023-01-15T09:09:23.411Z,83.23
2023-01-15T09:10:23.453Z,83.03
2023-01-15T09:11:23.395Z,81.68
2023-01-15T09:12:23.360Z,81.37
2023-01-15T09:13:23.383Z,81.48
2023-01-15T09:14:56.802Z,81.79
2023-01-15T09:15:24.349Z,81.58
2023-01-15T09:16:23.381Z,81.27
2023-01-15T09:17:23.299Z,80.76
2023-01-15T09:18:23.290Z,80.30
2023-01-15T09:19:23.287Z,80.51
2023-01-15T09:20:23.281Z,80.82
2023-01-15T09:21:23.249Z,80.62
2023-01-15T09:22:23.264Z,80.41
2023-01-15T09:23:23.247Z,80.72
2023-01-15T09:24:23.221Z,79.86
2023-01-15T09:25:23.209Z,78.89
2023-01-15T09:26:23.200Z,76.73
2023-01-15T09:27:23.186Z,76.14
2023-01-15T09:28:23.168Z,77.28
2023-01-15T09:29:23.158Z,76.42
2023-01-15T09:30:23.160Z,76.52
2023-01-15T09:31:23.129Z,73.33
2023-01-15T09:32:23.107Z,74.63
2023-01-15T09:33:23.087Z,74.95
2023-01-15T09:34:23.085Z,74.02
2023-01-15T09:35:23.067Z,73.19
2023-01-15T09:36:23.078Z,73.98
2023-01-15T09:37:23.039Z,74.63
2023-01-15T09:38:23.069Z,74.33
2023-01-15T09:39:23.022Z,74.74
2023-01-15T09:40:23.006Z,72.17
2023-01-15T09:41:23.006Z,72.44
2023-01-15T09:42:22.988Z,69.88
2023-01-15T09:43:22.985Z,70.56
2023-01-15T09:44:22.960Z,70.28
2023-01-15T09:45:22.999Z,72.44
2023-01-15T09:46:22.973Z,74.08
2023-01-15T09:47:22.915Z,73.06
2023-01-15T09:48:22.906Z,70.70
2023-01-15T09:49:22.895Z,69.53
2023-01-15T09:50:22.889Z,71.14
2023-01-15T09:51:22.868Z,71.79
2023-01-15T09:52:22.855Z,71.96
2023-01-15T09:53:22.840Z,73.57
2023-01-15T09:54:22.829Z,74.29
2023-01-15T09:55:22.821Z,74.43
2023-01-15T09:56:22.816Z,74.70
2023-01-15T09:57:22.795Z,72.55
2023-01-15T09:58:22.774Z,71.69
2023-01-15T09:59:22.753Z,71.35
2023-01-15T10:00:22.751Z,68.35
2023-01-15T10:01:22.995Z,67.05
2023-01-15T10:02:22.723Z,65.39
2023-01-15T10:03:22.727Z,65.39
2023-01-15T10:04:22.739Z,66.77
2023-01-15T10:05:22.683Z,69.40
2023-01-15T10:06:22.724Z,68.24
2023-01-15T10:07:22.662Z,66.50
2023-01-15T10:08:22.655Z,66.22
2023-01-15T10:09:22.632Z,69.43
2023-01-15T10:10:22.684Z,71.69
2023-01-15T10:11:22.650Z,73.26
2023-01-15T10:12:22.593Z,74.60
2023-01-15T10:13:22.631Z,74.33
2023-01-15T10:14:22.574Z,74.53
2023-01-15T10:15:22.558Z,74.74
2023-01-15T10:16:22.550Z,74.26
2023-01-15T10:17:22.532Z,72.78
2023-01-15T10:18:22.513Z,73.26
2023-01-15T10:19:22.503Z,73.81
2023-01-15T10:20:22.503Z,74.43
2023-01-15T10:21:22.492Z,75.18
2023-01-15T10:22:22.463Z,75.46
2023-01-15T10:23:22.504Z,74.19
2023-01-15T10:24:22.439Z,71.25
2023-01-15T10:25:22.431Z,71.41
2023-01-15T10:26:22.430Z,72.61
2023-01-15T10:27:22.426Z,73.68
2023-01-15T10:28:22.421Z,69.47
2023-01-15T10:29:22.381Z,67.76
2023-01-15T10:30:22.370Z,67.43
2023-01-15T10:31:22.462Z,66.88
2023-01-15T10:32:22.355Z,66.74
2023-01-15T10:33:22.335Z,67.83
2023-01-15T10:34:22.309Z,67.08
2023-01-15T10:35:22.299Z,66.60
2023-01-15T10:36:22.299Z,66.16
2023-01-15T10:37:22.282Z,67.29
2023-01-15T10:38:22.293Z,65.55
2023-01-15T10:39:22.311Z,65.49
2023-01-15T10:40:22.274Z,63.56
2023-01-15T10:41:22.352Z,64.87
2023-01-15T10:42:22.238Z,65.78
2023-01-15T10:43:22.191Z,68.65
2023-01-15T10:44:22.182Z,70.59
2023-01-15T10:45:22.228Z,69.06
2023-01-15T10:46:22.232Z,66.77
2023-01-15T10:47:22.139Z,67.90
2023-01-15T10:48:22.154Z,67.14
2023-01-15T10:49:22.119Z,67.66
2023-01-15T10:50:22.108Z,66.74
2023-01-15T10:51:22.110Z,69.50
2023-01-15T10:52:22.079Z,70.70
2023-01-15T10:53:22.060Z,71.75
2023-01-15T10:54:22.113Z,71.86
2023-01-15T10:55:22.077Z,71.45
2023-01-15T10:56:22.050Z,72.03
2023-01-15T10:57:22.010Z,70.32
2023-01-15T10:58:21.999Z,70.01
2023-01-15T10:59:21.978Z,70.39
2023-01-15T11:00:21.978Z,71.58
2023-01-15T11:01:22.118Z,71.66
2023-01-15T11:02:22.060Z,71.69
2023-01-15T11:03:21.928Z,70.25
2023-01-15T11:04:21.943Z,70.39
2023-01-15T11:05:21.908Z,70.94
2023-01-15T11:06:21.917Z,72.06
2023-01-15T11:07:21.877Z,72.09
2023-01-15T11:09:06.694Z,72.20
2023-01-15T11:09:22.859Z,73.13
2023-01-15T11:10:21.842Z,72.72
2023-01-15T11:11:21.817Z,72.81
2023-01-15T11:12:21.823Z,71.75
2023-01-15T11:13:21.797Z,70.52
2023-01-15T11:14:21.802Z,71.24
2023-01-15T11:15:21.771Z,70.15
2023-01-15T11:16:21.762Z,70.25
2023-01-15T11:17:21.757Z,70.18
2023-01-15T11:18:21.731Z,71.04
2023-01-15T11:19:21.716Z,71.58
2023-01-15T11:20:21.699Z,71.24
2023-01-15T11:21:21.697Z,71.17
2023-01-15T11:22:21.693Z,70.94
2023-01-15T11:23:21.673Z,71.86
2023-01-15T11:24:21.648Z,71.66
2023-01-15T11:25:21.645Z,72.27
2023-01-15T11:26:21.617Z,72.09
2023-01-15T11:27:21.627Z,72.51
2023-01-15T11:28:21.595Z,72.41
2023-01-15T11:29:21.595Z,73.06
2023-01-15T11:30:21.573Z,73.47
2023-01-15T11:31:21.566Z,73.47
2023-01-15T11:32:21.563Z,73.68
2023-01-15T11:33:21.557Z,72.68
2023-01-15T11:34:21.964Z,72.37
2023-01-15T11:35:21.514Z,72.58
2023-01-15T11:36:21.507Z,73.09
2023-01-15T11:37:21.494Z,73.30
2023-01-15T11:38:21.464Z,73.71
2023-01-15T11:39:21.455Z,73.68
2023-01-15T11:40:21.444Z,73.06
2023-01-15T11:41:21.433Z,72.92
2023-01-15T11:42:21.445Z,70.46
2023-01-15T11:43:21.416Z,68.37
2023-01-15T11:44:21.393Z,69.74
2023-01-15T11:45:21.387Z,71.34
2023-01-15T11:46:21.437Z,72.38
2023-01-15T11:47:21.383Z,72.17
2023-01-15T11:48:21.340Z,72.38
2023-01-15T11:49:21.333Z,72.17
2023-01-15T11:50:21.321Z,71.75
2023-01-15T11:51:21.315Z,71.75
2023-01-15T11:52:21.305Z,71.86
2023-01-15T11:53:21.297Z,72.09
2023-01-15T11:54:21.266Z,71.86
2023-01-15T11:55:21.251Z,71.35
2023-01-15T11:56:21.254Z,70.15
2023-01-15T11:57:21.242Z,69.40
2023-01-15T11:58:21.220Z,69.13
2023-01-15T11:59:21.220Z,68.68
2023-01-15T12:00:21.188Z,69.56
2023-01-15T12:01:21.243Z,70.62
2023-01-15T12:02:21.201Z,71.45
2023-01-15T12:03:21.211Z,71.69
2023-01-15T12:04:21.191Z,72.09
2023-01-15T12:05:21.130Z,71.82
2023-01-15T12:06:21.110Z,72.03
2023-01-15T12:07:21.111Z,72.03
2023-01-15T12:08:21.186Z,72.09
2023-01-15T12:09:21.083Z,72.03
2023-01-15T12:10:21.060Z,72.13
2023-01-15T12:11:27.069Z,72.64
2023-01-15T12:12:22.148Z,72.85
2023-01-15T12:13:21.030Z,72.44
2023-01-15T12:14:21.034Z,72.75
2023-01-15T12:15:21.000Z,72.96
2023-01-15T12:16:21.090Z,72.75
2023-01-15T12:17:20.997Z,73.16
2023-01-15T12:18:20.981Z,73.16
2023-01-15T12:19:20.949Z,73.06
2023-01-15T12:20:20.931Z,73.26
2023-01-15T12:21:20.920Z,72.85
2023-01-15T12:22:20.908Z,73.36
2023-01-15T12:23:20.916Z,72.85
2023-01-15T12:24:20.881Z,72.64
2023-01-15T12:25:20.895Z,73.06
2023-01-15T12:26:20.874Z,73.36
2023-01-15T12:27:20.860Z,73.57
2023-01-15T12:28:20.852Z,73.68
2023-01-15T12:29:20.821Z,73.50
2023-01-15T12:30:20.834Z,73.61
2023-01-15T12:31:20.855Z,74.12
2023-01-15T12:32:20.802Z,73.91
2023-01-15T12:33:20.783Z,73.81
2023-01-15T12:34:20.788Z,73.81
2023-01-15T12:35:20.750Z,73.81
2023-01-15T12:36:20.776Z,73.81
2023-01-15T12:37:20.859Z,73.68
2023-01-15T12:38:20.707Z,73.36
2023-01-15T12:39:20.739Z,72.96
2023-01-15T12:40:20.709Z,72.75
2023-01-15T12:41:20.671Z,72.75
2023-01-15T12:42:20.691Z,72.44
2023-01-15T12:43:20.713Z,72.44
2023-01-15T12:44:20.688Z,72.64
2023-01-15T12:45:20.692Z,72.54
2023-01-15T12:46:20.620Z,72.96
2023-01-15T12:47:20.638Z,72.75
2023-01-15T12:48:20.628Z,73.06
2023-01-15T12:49:20.599Z,73.16
2023-01-15T12:50:20.617Z,73.47
2023-01-15T12:51:21.253Z,73.71
2023-01-15T12:52:20.525Z,73.81
2023-01-15T12:53:20.536Z,73.98
2023-01-15T12:54:20.535Z,73.36
2023-01-15T12:55:20.486Z,73.16
2023-01-15T12:56:20.473Z,73.36
2023-01-15T12:57:20.486Z,73.26
2023-01-15T12:58:20.453Z,73.57
2023-01-15T12:59:20.424Z,73.88
2023-01-15T13:00:20.430Z,73.68
2023-01-15T13:01:20.525Z,73.36
2023-01-15T13:02:20.481Z,73.68
2023-01-15T13:03:20.395Z,73.68
2023-01-15T13:04:20.445Z,73.47
2023-01-15T13:05:20.438Z,73.68
2023-01-15T13:06:20.352Z,74.19
2023-01-15T13:07:20.352Z,73.78
2023-01-15T13:08:20.324Z,73.68
2023-01-15T13:09:20.303Z,73.47
2023-01-15T13:10:20.395Z,73.36
2023-01-15T13:11:20.312Z,73.36
2023-01-15T13:12:20.264Z,73.36
2023-01-15T13:13:20.312Z,73.16
2023-01-15T13:14:20.265Z,73.47
2023-01-15T13:15:20.220Z,72.92
2023-01-15T13:16:20.259Z,73.13
2023-01-15T13:17:20.389Z,72.81
2023-01-15T13:18:20.206Z,72.81
2023-01-15T13:19:20.172Z,73.09
2023-01-15T13:20:20.189Z,72.68
2023-01-15T13:21:20.152Z,72.06
2023-01-15T13:22:20.123Z,72.09
2023-01-15T13:23:20.170Z,72.30
2023-01-15T13:24:20.102Z,72.51
2023-01-15T13:25:20.107Z,72.68
2023-01-15T13:26:20.106Z,72.38
2023-01-15T13:27:20.060Z,72.41
2023-01-15T13:28:20.171Z,72.61
2023-01-15T13:29:20.129Z,73.02
2023-01-15T13:30:20.033Z,73.44
2023-01-15T13:31:20.075Z,73.23
2023-01-15T13:32:20.002Z,72.64
2023-01-15T13:33:19.995Z,73.16
2023-01-15T13:34:19.996Z,73.26
2023-01-15T13:35:19.977Z,73.36
2023-01-15T13:36:19.970Z,73.47
2023-01-15T13:37:19.946Z,73.36
2023-01-15T13:38:19.924Z,73.36
2023-01-15T13:39:20.035Z,73.78
2023-01-15T13:40:19.891Z,73.68
2023-01-15T13:41:19.899Z,73.26
2023-01-15T13:42:19.876Z,73.78
2023-01-15T13:43:19.849Z,73.88
2023-01-15T13:44:19.866Z,73.88
2023-01-15T13:45:19.868Z,74.60
2023-01-15T13:46:19.874Z,74.91
2023-01-15T13:47:19.871Z,74.53
2023-01-15T13:48:19.813Z,74.95
2023-01-15T13:49:19.799Z,74.95
2023-01-15T13:50:19.828Z,75.25
2023-01-15T13:51:19.783Z,75.15
2023-01-15T13:52:19.747Z,75.15
2023-01-15T13:53:19.736Z,75.25
2023-01-15T13:54:19.727Z,75.56
2023-01-15T13:55:19.699Z,75.67
2023-01-15T13:56:19.698Z,75.15
2023-01-15T13:57:19.677Z,75.05
2023-01-15T13:58:19.685Z,74.63
2023-01-15T13:59:19.663Z,74.63
2023-01-15T14:00:19.674Z,74.80
2023-01-15T14:01:19.819Z,75.01
2023-01-15T14:02:19.614Z,74.74
2023-01-15T14:03:19.661Z,74.22
2023-01-15T14:04:19.597Z,74.53
2023-01-15T14:05:19.576Z,74.63
2023-01-15T14:06:19.564Z,74.95
2023-01-15T14:07:19.545Z,74.74
2023-01-15T14:08:19.574Z,74.70
2023-01-15T14:09:19.533Z,73.88
2023-01-15T14:10:19.535Z,73.68
2023-01-15T14:11:19.496Z,73.68
2023-01-15T14:12:19.485Z,73.78
2023-01-15T14:13:19.475Z,73.98
2023-01-15T14:14:19.481Z,74.08
2023-01-15T14:15:19.441Z,73.88
2023-01-15T14:16:19.457Z,73.88
2023-01-15T14:17:19.425Z,73.88
2023-01-15T14:18:19.413Z,73.78
2023-01-15T14:19:19.403Z,73.78
2023-01-15T14:20:19.372Z,73.47
2023-01-15T14:21:19.422Z,73.57
2023-01-15T14:22:19.358Z,74.08
2023-01-15T14:23:19.342Z,74.19
2023-01-15T14:24:19.337Z,74.08
2023-01-15T14:25:19.311Z,74.19
2023-01-15T14:26:19.317Z,74.43
2023-01-15T14:27:19.331Z,75.15
2023-01-15T14:28:19.271Z,75.87
2023-01-15T14:29:19.281Z,76.18
2023-01-15T14:30:19.247Z,76.70
2023-01-15T14:31:19.274Z,77.11
2023-01-15T14:32:19.245Z,77.14
2023-01-15T14:33:19.212Z,76.21
2023-01-15T14:34:19.220Z,76.32
2023-01-15T14:35:19.192Z,76.53
2023-01-15T14:36:19.182Z,76.01
2023-01-15T14:37:19.169Z,76.21
2023-01-15T14:38:19.143Z,76.11
2023-01-15T14:39:19.141Z,75.90
2023-01-15T14:40:19.126Z,75.90
2023-01-15T14:41:19.110Z,75.90
2023-01-15T14:42:19.089Z,75.70
2023-01-15T14:43:19.089Z,75.81
2023-01-15T14:44:19.079Z,75.70
2023-01-15T14:45:19.057Z,75.60
2023-01-15T14:46:19.059Z,76.11
2023-01-15T14:47:19.030Z,77.55
2023-01-15T14:48:19.023Z,77.25
2023-01-15T14:49:19.017Z,78.17
2023-01-15T14:50:18.989Z,77.55
2023-01-15T14:51:18.977Z,77.86
2023-01-15T14:52:18.971Z,77.76
2023-01-15T14:53:18.955Z,77.66
2023-01-15T14:54:18.937Z,77.35
2023-01-15T14:55:18.938Z,76.83
2023-01-15T14:56:18.922Z,76.11
2023-01-15T14:57:18.918Z,75.70
2023-01-15T14:58:18.880Z,75.39
2023-01-15T14:59:18.883Z,75.39
2023-01-15T15:00:18.875Z,75.18
2023-01-15T15:01:18.965Z,74.95
2023-01-15T15:02:19.009Z,74.74
2023-01-15T15:03:18.841Z,74.74
2023-01-15T15:04:18.807Z,74.95
2023-01-15T15:05:18.827Z,74.95
2023-01-15T15:06:18.783Z,74.63
2023-01-15T15:07:18.837Z,74.63
2023-01-15T15:08:18.767Z,74.63
2023-01-15T15:09:18.747Z,74.84
2023-01-15T15:10:18.747Z,74.84
2023-01-15T15:11:18.723Z,74.84
2023-01-15T15:12:18.714Z,74.95
2023-01-15T15:13:18.733Z,75.67
2023-01-15T15:14:18.706Z,75.67
2023-01-15T15:15:18.687Z,75.39
2023-01-15T15:16:18.693Z,75.15
2023-01-15T15:17:18.667Z,74.84
2023-01-15T15:18:18.745Z,74.53
2023-01-15T15:19:18.622Z,74.53
2023-01-15T15:20:18.683Z,74.43
2023-01-15T15:21:18.650Z,74.95
2023-01-15T15:22:18.582Z,74.84
2023-01-15T15:23:18.567Z,74.74
2023-01-15T15:24:18.574Z,74.74
2023-01-15T15:25:18.621Z,74.84
2023-01-15T15:26:18.531Z,75.05
2023-01-15T15:27:18.524Z,75.25
2023-01-15T15:28:18.513Z,75.39
2023-01-15T15:29:18.482Z,75.60
2023-01-15T15:30:18.482Z,75.60
2023-01-15T15:31:18.492Z,75.39
2023-01-15T15:32:18.465Z,75.60
2023-01-15T15:33:18.452Z,76.01
2023-01-15T15:34:18.513Z,76.21
2023-01-15T15:35:18.435Z,76.11
2023-01-15T15:36:18.491Z,76.32
2023-01-15T15:37:18.411Z,76.32
2023-01-15T15:38:18.472Z,76.53
2023-01-15T15:39:18.452Z,76.42
2023-01-15T15:40:18.529Z,76.53
2023-01-15T15:41:18.350Z,76.53
2023-01-15T15:42:18.329Z,76.32
2023-01-15T15:43:18.349Z,76.42
2023-01-15T15:44:18.290Z,76.21
2023-01-15T15:45:18.376Z,76.21
2023-01-15T15:46:18.319Z,76.42
2023-01-15T15:47:18.258Z,76.21
2023-01-15T15:48:18.269Z,76.21
2023-01-15T15:49:18.299Z,76.42
2023-01-15T15:50:18.238Z,76.21
2023-01-15T15:51:18.216Z,76.32
2023-01-15T15:52:18.197Z,76.11
2023-01-15T15:53:18.194Z,76.01
2023-01-15T15:54:18.157Z,76.11
2023-01-15T15:55:18.176Z,76.21
2023-01-15T15:56:18.137Z,75.81
2023-01-15T15:57:18.128Z,75.81
2023-01-15T15:58:18.139Z,75.90
2023-01-15T15:59:18.156Z,75.90
2023-01-15T16:00:18.172Z,76.11
2023-01-15T16:01:18.135Z,76.01
2023-01-15T16:02:18.374Z,76.01
2023-01-15T16:03:18.085Z,76.11
2023-01-15T16:04:18.035Z,76.32
2023-01-15T16:05:18.082Z,76.25
2023-01-15T16:06:18.019Z,76.35
2023-01-15T16:07:18.183Z,76.25
2023-01-15T16:08:17.989Z,76.15
2023-01-15T16:09:17.974Z,76.04
2023-01-15T16:10:17.959Z,76.25
2023-01-15T16:11:17.965Z,76.35
2023-01-15T16:12:17.932Z,76.04
2023-01-15T16:13:17.923Z,76.04
2023-01-15T16:14:17.929Z,76.15
2023-01-15T16:15:17.925Z,75.94
2023-01-15T16:16:17.890Z,76.04
2023-01-15T16:17:17.872Z,75.84
2023-01-15T16:18:17.861Z,75.73
2023-01-15T16:19:17.843Z,75.63
2023-01-15T16:20:17.834Z,75.73
2023-01-15T16:21:17.838Z,75.94
2023-01-15T16:22:17.809Z,76.04
2023-01-15T16:23:17.793Z,76.35
2023-01-15T16:24:17.783Z,76.15
2023-01-15T16:25:17.762Z,76.15
2023-01-15T16:26:17.770Z,75.94
2023-01-15T16:27:17.748Z,76.04
2023-01-15T16:28:17.724Z,75.94
2023-01-15T16:29:17.724Z,76.04
2023-01-15T16:30:17.706Z,76.04
2023-01-15T16:31:17.796Z,76.15
2023-01-15T16:32:17.845Z,76.25
2023-01-15T16:33:17.662Z,76.15
2023-01-15T16:34:17.655Z,76.25
2023-01-15T16:35:17.638Z,76.04
2023-01-15T16:36:17.643Z,75.84
2023-01-15T16:37:17.613Z,75.94
2023-01-15T16:38:17.592Z,76.04
2023-01-15T16:39:17.584Z,76.04
2023-01-15T16:40:17.569Z,76.15
2023-01-15T16:41:17.572Z,76.25
2023-01-15T16:42:17.565Z,76.35
2023-01-15T16:43:17.561Z,76.46
2023-01-15T16:44:17.531Z,76.46
2023-01-15T16:45:17.530Z,76.46
2023-01-15T16:46:17.577Z,76.46
2023-01-15T16:47:17.504Z,76.25
2023-01-15T16:48:17.470Z,76.46
2023-01-15T16:49:17.478Z,76.56
2023-01-15T16:50:17.450Z,76.35
2023-01-15T16:51:17.449Z,76.46
2023-01-15T16:52:17.435Z,76.56
2023-01-15T16:53:17.408Z,76.25
2023-01-15T16:54:17.389Z,76.25
2023-01-15T16:55:18.144Z,76.25
2023-01-15T16:56:17.378Z,76.25
2023-01-15T16:57:17.356Z,76.46
2023-01-15T16:58:17.337Z,76.56
2023-01-15T16:59:17.342Z,76.46
2023-01-15T17:00:17.318Z,76.56
2023-01-15T17:01:17.400Z,76.46
2023-01-15T17:02:17.339Z,76.56
2023-01-15T17:03:17.282Z,76.76
2023-01-15T17:04:17.259Z,76.66
2023-01-15T17:05:17.280Z,77.08
2023-01-15T17:06:17.257Z,77.08
2023-01-15T17:07:17.247Z,77.18
2023-01-15T17:08:17.207Z,77.28
2023-01-15T17:09:17.214Z,77.59
2023-01-15T17:10:17.187Z,77.69
2023-01-15T17:11:17.187Z,77.69
2023-01-15T17:12:17.164Z,77.80
2023-01-15T17:13:17.144Z,77.80
2023-01-15T17:14:17.136Z,78.14
2023-01-15T17:15:17.230Z,78.14
2023-01-15T17:16:17.212Z,78.24
2023-01-15T17:17:17.113Z,78.45
2023-01-15T17:18:17.104Z,78.24
2023-01-15T17:19:17.075Z,78.34
2023-01-15T17:20:17.072Z,78.34
2023-01-15T17:21:17.053Z,78.34
2023-01-15T17:22:17.052Z,78.55
2023-01-15T17:23:17.021Z,78.55
2023-01-15T17:24:17.009Z,78.76
2023-01-15T17:25:16.989Z,78.86
2023-01-15T17:26:17.011Z,78.97
2023-01-15T17:27:16.977Z,78.97
2023-01-15T17:28:16.992Z,78.86
2023-01-15T17:29:16.945Z,78.66
2023-01-15T17:30:16.944Z,78.97
2023-01-15T17:31:16.946Z,79.07
2023-01-15T17:32:16.922Z,79.07
2023-01-15T17:33:16.892Z,79.17
2023-01-15T17:34:16.889Z,79.38
2023-01-15T17:35:16.861Z,79.48
2023-01-15T17:36:16.854Z,79.69
2023-01-15T17:37:16.890Z,80.00
2023-01-15T17:38:16.822Z,80.04
2023-01-15T17:39:18.606Z,80.04
2023-01-15T17:40:16.800Z,80.24
2023-01-15T17:41:16.783Z,80.04
2023-01-15T17:42:16.804Z,80.14
2023-01-15T17:43:16.769Z,80.24
2023-01-15T17:44:16.787Z,80.34
2023-01-15T17:45:16.773Z,80.44
2023-01-15T17:46:16.791Z,80.34
2023-01-15T17:47:16.719Z,80.55
2023-01-15T17:48:16.750Z,80.76
2023-01-15T17:49:16.683Z,80.76
2023-01-15T17:50:16.679Z,80.76
2023-01-15T17:51:16.673Z,80.86
2023-01-15T17:52:16.682Z,80.96
2023-01-15T17:53:16.659Z,80.96
2023-01-15T17:54:16.628Z,81.17
2023-01-15T17:55:18.979Z,81.27
2023-01-15T17:56:16.610Z,81.07
2023-01-15T17:57:16.602Z,80.96
2023-01-15T17:58:16.597Z,80.96
2023-01-15T17:59:16.611Z,80.96
2023-01-15T18:00:16.547Z,80.86
2023-01-15T18:01:16.657Z,80.55
2023-01-15T18:02:16.552Z,80.44
2023-01-15T18:03:16.511Z,80.44
2023-01-15T18:04:16.565Z,80.34
2023-01-15T18:05:16.487Z,80.04
2023-01-15T18:06:16.488Z,79.83
2023-01-15T18:07:16.533Z,79.52